createdAt,value
2023-01-19T00:01:31.648Z,-1.29
2023-01-19T00:03:58.795Z,-1.28
2023-01-19T00:06:26.522Z,-1.21
2023-01-19T00:08:53.797Z,-1.20
2023-01-19T00:11:21.349Z,-1.09
2023-01-19T00:13:52.108Z,-1.06
2023-01-19T00:16:22.654Z,-0.98
2023-01-19T00:18:52.119Z,-0.87
2023-01-19T00:21:21.724Z,-0.85
2023-01-19T00:23:51.342Z,-0.92
2023-01-19T00:26:19.636Z,-0.83
2023-01-19T00:28:46.963Z,-0.81
2023-01-19T00:31:14.465Z,-0.85
2023-01-19T00:33:41.684Z,-0.78
2023-01-19T00:36:09.889Z,-0.73
2023-01-19T00:38:37.327Z,-0.74
2023-01-19T00:41:04.916Z,-0.75
2023-01-19T00:43:32.077Z,-0.79
2023-01-19T00:45:59.703Z,-0.67
2023-01-19T00:48:26.967Z,-0.69
2023-01-19T00:50:54.512Z,-0.58
2023-01-19T00:53:22.145Z,-0.54
2023-01-19T00:55:49.632Z,-0.53
2023-01-19T00:58:16.893Z,-0.46
2023-01-19T01:00:45.016Z,-0.47
2023-01-19T01:03:12.355Z,-0.49
2023-01-19T01:05:43.006Z,-0.43
2023-01-19T01:08:10.236Z,-0.52
2023-01-19T01:10:37.714Z,-0.54
2023-01-19T01:13:20.469Z,-0.43
2023-01-19T01:15:53.083Z,-0.43
2023-01-19T01:18:21.231Z,-0.38
2023-01-19T01:20:49.034Z,-0.42
2023-01-19T01:23:16.358Z,-0.45
2023-01-19T01:25:43.857Z,-0.46
2023-01-19T01:28:11.028Z,-0.48
2023-01-19T01:30:41.539Z,-0.42
2023-01-19T01:33:08.799Z,-0.42
2023-01-19T01:35:36.285Z,-0.40
2023-01-19T01:38:04.008Z,-0.49
2023-01-19T01:40:32.611Z,-0.46
2023-01-19T01:43:00.148Z,-0.43
2023-01-19T01:45:36.544Z,-0.23
2023-01-19T01:48:06.888Z,-0.21
2023-01-19T01:50:37.155Z,-0.15
2023-01-19T01:53:15.434Z,-0.20
2023-01-19T01:55:49.215Z,-0.12
2023-01-19T01:58:17.010Z,-0.16
2023-01-19T02:01:03.716Z,-0.18
2023-01-19T02:03:32.695Z,-0.19
2023-01-19T02:06:07.102Z,-0.17
2023-01-19T02:09:14.287Z,-0.27
2023-01-19T02:12:00.332Z,-0.06
2023-01-19T02:14:27.956Z,-0.09
2023-01-19T02:16:55.481Z,-0.18
2023-01-19T02:19:31.426Z,-0.15
2023-01-19T02:22:06.377Z,-0.25
2023-01-19T02:24:33.877Z,-0.28
2023-01-19T02:27:01.867Z,-0.24
2023-01-19T02:29:29.512Z,-0.21
2023-01-19T02:31:57.493Z,-0.28
2023-01-19T02:34:24.787Z,-0.28
2023-01-19T02:36:58.415Z,-0.18
2023-01-19T02:39:32.927Z,-0.19
2023-01-19T02:42:05.537Z,-0.17
2023-01-19T02:44:35.332Z,-0.26
2023-01-19T02:47:04.846Z,-0.21
2023-01-19T02:49:32.034Z,-0.31
2023-01-19T02:52:01.225Z,-0.25
2023-01-19T02:54:49.747Z,-0.13
2023-01-19T02:57:31.722Z,-0.17
2023-01-19T03:00:08.297Z,-0.22
2023-01-19T03:02:54.539Z,-0.18
2023-01-19T03:05:30.906Z,-0.28
2023-01-19T03:08:13.270Z,-0.23
2023-01-19T03:11:01.003Z,-0.30
2023-01-19T03:13:47.393Z,-0.18
2023-01-19T03:16:33.118Z,-0.19
2023-01-19T03:19:10.449Z,-0.26
2023-01-19T03:21:40.764Z,-0.31
2023-01-19T03:24:11.502Z,-0.33
2023-01-19T03:26:56.343Z,-0.29
2023-01-19T03:29:28.312Z,-0.42
2023-01-19T03:31:59.962Z,-0.48
2023-01-19T03:34:29.096Z,-0.52
2023-01-19T03:37:02.973Z,-0.50
2023-01-19T03:39:31.372Z,-0.60
2023-01-19T03:42:03.321Z,-0.56
2023-01-19T03:44:34.616Z,-0.59
2023-01-19T03:47:04.540Z,-0.53
2023-01-19T03:49:34.636Z,-0.67
2023-01-19T03:52:02.336Z,-0.69
2023-01-19T03:54:30.088Z,-0.77
2023-01-19T03:56:57.249Z,-0.55
2023-01-19T03:59:24.799Z,-0.50
2023-01-19T04:01:52.537Z,-0.43
2023-01-19T04:04:20.038Z,-0.43
2023-01-19T04:06:47.492Z,-0.36
2023-01-19T04:09:15.035Z,-0.30
2023-01-19T04:11:42.316Z,-0.29
2023-01-19T04:14:09.777Z,-0.25
2023-01-19T04:16:37.536Z,-0.34
2023-01-19T04:19:05.059Z,-0.37
2023-01-19T04:21:32.270Z,-0.44
2023-01-19T04:23:59.899Z,-0.49
2023-01-19T04:26:27.098Z,-0.51
2023-01-19T04:28:54.607Z,-0.55
2023-01-19T04:31:23.423Z,-0.60
2023-01-19T04:33:50.931Z,-0.60
2023-01-19T04:36:18.090Z,-0.59
2023-01-19T04:38:46.769Z,-0.66
2023-01-19T04:41:13.961Z,-0.76
2023-01-19T04:43:41.677Z,-0.80
2023-01-19T04:46:08.893Z,-0.72
2023-01-19T04:48:36.529Z,-0.73
2023-01-19T04:51:03.867Z,-0.75
2023-01-19T04:53:31.442Z,-0.81
2023-01-19T04:56:00.796Z,-0.65
2023-01-19T04:58:28.378Z,-0.67
2023-01-19T05:00:55.646Z,-0.59
2023-01-19T05:03:24.953Z,-0.56
2023-01-19T05:05:52.951Z,-0.54
2023-01-19T05:08:20.401Z,-0.59
2023-01-19T05:10:48.651Z,-0.42
2023-01-19T05:13:16.178Z,-0.47
2023-01-19T05:15:43.559Z,-0.49
2023-01-19T05:18:11.603Z,-0.50
2023-01-19T05:20:40.305Z,-0.32
2023-01-19T05:23:07.949Z,-0.31
2023-01-19T05:25:35.129Z,-0.27
2023-01-19T05:28:03.418Z,-0.12
2023-01-19T05:30:31.088Z,-0.01
2023-01-19T05:32:59.155Z,0.01
2023-01-19T05:35:35.726Z,-0.01
2023-01-19T05:38:04.548Z,0.14
2023-01-19T05:40:31.888Z,0.05
2023-01-19T05:43:01.525Z,0.21
2023-01-19T05:45:29.024Z,0.13
2023-01-19T05:47:56.828Z,0.12
2023-01-19T05:50:24.216Z,0.24
2023-01-19T05:52:53.582Z,0.21
2023-01-19T05:55:21.655Z,0.29
2023-01-19T05:57:49.524Z,0.30
2023-01-19T06:00:16.947Z,0.18
2023-01-19T06:02:44.791Z,0.30
2023-01-19T06:05:12.129Z,0.38
2023-01-19T06:07:39.782Z,0.28
2023-01-19T06:10:07.752Z,0.31
2023-01-19T06:12:37.488Z,0.27
2023-01-19T06:15:05.461Z,0.24
2023-01-19T06:17:33.943Z,0.13
2023-01-19T06:20:01.102Z,0.01
2023-01-19T06:22:28.664Z,0.05
2023-01-19T06:24:55.828Z,0.05
2023-01-19T06:27:23.386Z,0.10
2023-01-19T06:29:50.619Z,0.12
2023-01-19T06:32:18.128Z,0.10
2023-01-19T06:34:46.670Z,0.11
2023-01-19T06:37:16.309Z,0.08
2023-01-19T06:39:45.491Z,0.11
2023-01-19T06:42:13.038Z,0.18
2023-01-19T06:44:47.515Z,0.16
2023-01-19T06:47:16.516Z,0.14
2023-01-19T06:49:44.319Z,0.11
2023-01-19T06:52:16.194Z,0.18
2023-01-19T06:54:46.892Z,0.22
2023-01-19T06:57:14.775Z,0.18
2023-01-19T06:59:42.192Z,0.16
2023-01-19T07:02:26.280Z,0.20
2023-01-19T07:04:56.783Z,0.24
2023-01-19T07:07:24.472Z,0.31
2023-01-19T07:09:53.928Z,0.37
2023-01-19T07:12:22.803Z,0.37
2023-01-19T07:14:50.186Z,0.39
2023-01-19T07:17:17.701Z,0.36
2023-01-19T07:19:46.518Z,0.36
2023-01-19T07:22:13.969Z,0.29
2023-01-19T07:24:41.526Z,0.31
2023-01-19T07:27:11.663Z,0.37
2023-01-19T07:29:39.422Z,0.40
2023-01-19T07:32:07.754Z,0.39
2023-01-19T07:34:34.931Z,0.34
2023-01-19T07:37:02.669Z,0.45
2023-01-19T07:39:30.962Z,0.48
2023-01-19T07:41:58.541Z,0.49
2023-01-19T07:44:25.712Z,0.60
2023-01-19T07:46:53.251Z,0.59
2023-01-19T07:49:20.833Z,0.65
2023-01-19T07:51:48.726Z,0.67
2023-01-19T07:54:15.940Z,0.58
2023-01-19T07:56:43.552Z,0.66
2023-01-19T07:59:11.266Z,0.78
2023-01-19T08:01:39.071Z,0.68
2023-01-19T08:04:06.551Z,0.72
2023-01-19T08:06:37.048Z,0.82
2023-01-19T08:09:08.665Z,0.80
2023-01-19T08:11:36.900Z,0.75
2023-01-19T08:14:06.304Z,0.87
2023-01-19T08:16:36.190Z,0.96
2023-01-19T08:19:04.056Z,1.02
2023-01-19T08:21:33.433Z,0.95
2023-01-19T08:24:00.608Z,1.07
2023-01-19T08:26:33.884Z,1.30
2023-01-19T08:29:04.001Z,1.34
2023-01-19T08:31:31.906Z,1.44
2023-01-19T08:33:59.448Z,1.40
2023-01-19T08:36:27.132Z,1.52
2023-01-19T08:38:54.532Z,1.62
2023-01-19T08:41:22.770Z,1.68
2023-01-19T08:43:50.619Z,1.83
2023-01-19T08:46:21.017Z,1.81
2023-01-19T08:48:51.097Z,1.87
2023-01-19T08:51:18.902Z,1.91
2023-01-19T08:53:46.231Z,1.93
2023-01-19T08:56:14.593Z,2.00
2023-01-19T08:58:43.889Z,2.10
2023-01-19T09:01:15.095Z,2.04
2023-01-19T09:03:44.122Z,2.03
2023-01-19T09:06:14.874Z,2.07
2023-01-19T09:08:42.134Z,2.09
2023-01-19T09:11:14.834Z,2.14
2023-01-19T09:21:26.180Z,0.96
2023-01-19T09:23:54.900Z,0.97
2023-01-19T09:26:23.841Z,0.87
2023-01-19T09:28:51.433Z,0.99
2023-01-19T09:31:18.735Z,0.99
2023-01-19T09:33:46.400Z,1.10
2023-01-19T09:36:13.515Z,1.16
2023-01-19T09:38:41.006Z,1.17
2023-01-19T09:41:26.802Z,1.23
2023-01-19T09:43:59.341Z,1.18
2023-01-19T09:46:41.583Z,1.28
2023-01-19T09:49:44.783Z,1.32
2023-01-19T09:52:33.609Z,1.26
2023-01-19T09:55:02.156Z,1.24
2023-01-19T09:57:36.278Z,1.16
2023-01-19T10:00:13.609Z,1.35
2023-01-19T10:03:03.695Z,1.25
2023-01-19T10:05:44.919Z,1.29
2023-01-19T10:08:30.270Z,1.31
2023-01-19T10:10:58.851Z,1.22
2023-01-19T10:13:47.319Z,1.28
2023-01-19T10:16:39.786Z,1.35
2023-01-19T10:19:12.978Z,1.29
2023-01-19T10:21:45.421Z,1.26
2023-01-19T10:24:12.600Z,1.27
2023-01-19T10:26:49.964Z,1.32
2023-01-19T10:29:23.092Z,1.39
2023-01-19T10:31:53.088Z,1.50
2023-01-19T10:34:23.376Z,1.52
2023-01-19T10:36:59.127Z,1.52
2023-01-19T10:39:26.659Z,1.44
2023-01-19T10:41:54.242Z,1.42
2023-01-19T10:44:34.848Z,1.64
2023-01-19T10:47:02.689Z,1.80
2023-01-19T10:49:37.650Z,1.82
2023-01-19T10:52:07.870Z,1.73
2023-01-19T10:54:37.451Z,1.50
2023-01-19T10:57:09.989Z,1.46
2023-01-19T10:59:49.784Z,1.50
2023-01-19T11:02:26.686Z,1.62
2023-01-19T11:04:56.885Z,1.59
2023-01-19T11:07:29.716Z,1.61
2023-01-19T11:10:15.809Z,1.59
2023-01-19T11:13:01.459Z,1.55
2023-01-19T11:15:34.980Z,1.60
2023-01-19T11:18:05.514Z,1.62
2023-01-19T11:20:48.427Z,1.47
2023-01-19T11:23:22.375Z,1.37
2023-01-19T11:25:52.246Z,1.58
2023-01-19T11:28:44.997Z,1.52
2023-01-19T11:31:15.078Z,1.55
2023-01-19T11:33:50.936Z,1.65
2023-01-19T11:36:24.683Z,1.66
2023-01-19T11:38:55.156Z,1.54
2023-01-19T11:41:26.530Z,1.38
2023-01-19T11:43:57.634Z,1.37
2023-01-19T11:46:30.353Z,1.44
2023-01-19T11:49:15.832Z,1.53
2023-01-19T11:52:27.629Z,1.47
2023-01-19T11:55:14.834Z,1.54
2023-01-19T11:57:51.966Z,1.48
2023-01-19T12:00:36.218Z,1.51
2023-01-19T12:03:11.972Z,1.39
2023-01-19T12:05:49.073Z,1.41
2023-01-19T12:08:23.596Z,1.42
2023-01-19T12:10:55.692Z,1.38
2023-01-19T12:13:25.890Z,1.34
2023-01-19T12:16:08.905Z,1.23
2023-01-19T12:18:42.525Z,1.05
2023-01-19T12:21:10.519Z,0.88
2023-01-19T12:24:02.385Z,0.86
2023-01-19T12:26:38.577Z,0.78
2023-01-19T12:29:11.929Z,0.72
2023-01-19T12:31:41.050Z,0.63
2023-01-19T12:34:32.171Z,0.67
2023-01-19T12:37:05.093Z,0.66
2023-01-19T12:39:35.495Z,0.54
2023-01-19T12:42:06.165Z,0.54
2023-01-19T12:44:34.571Z,0.55
2023-01-19T12:47:20.451Z,0.58
2023-01-19T12:49:52.039Z,0.62
2023-01-19T12:52:34.947Z,0.69
2023-01-19T12:55:14.142Z,0.67
2023-01-19T12:57:47.804Z,0.52
2023-01-19T13:00:24.240Z,0.61
2023-01-19T13:02:53.544Z,0.54
2023-01-19T13:05:39.515Z,0.68
2023-01-19T13:08:07.908Z,0.62
2023-01-19T13:10:54.602Z,0.62
2023-01-19T13:13:25.776Z,0.54
2023-01-19T13:15:55.897Z,0.42
2023-01-19T13:18:28.664Z,0.31
2023-01-19T13:21:05.571Z,0.22
2023-01-19T13:23:45.079Z,0.22
2023-01-19T13:26:15.882Z,0.14
2023-01-19T13:28:55.747Z,0.17
2023-01-19T13:31:26.165Z,0.22
2023-01-19T13:34:00.219Z,0.16
2023-01-19T13:36:41.566Z,0.33
2023-01-19T13:39:20.307Z,0.32
2023-01-19T13:41:49.730Z,0.29
2023-01-19T13:44:42.241Z,0.31
2023-01-19T13:47:19.551Z,0.24
2023-01-19T13:49:51.304Z,0.27
2023-01-19T13:52:27.887Z,0.33
2023-01-19T13:55:01.328Z,0.35
2023-01-19T13:57:40.758Z,0.30
2023-01-19T14:00:17.355Z,0.25
2023-01-19T14:02:59.599Z,0.28
2023-01-19T14:05:27.346Z,0.15
2023-01-19T14:08:13.737Z,0.12
2023-01-19T14:11:02.235Z,0.12
2023-01-19T14:13:35.123Z,0.13
2023-01-19T14:16:16.030Z,0.15
2023-01-19T14:18:45.837Z,0.08
2023-01-19T14:21:15.258Z,0.09
2023-01-19T14:23:52.948Z,0.10
2023-01-19T14:26:38.732Z,0.15
2023-01-19T14:29:15.599Z,0.06
2023-01-19T14:32:06.064Z,0.14
2023-01-19T14:34:41.598Z,0.10
2023-01-19T14:37:24.228Z,0.06
2023-01-19T14:40:24.704Z,0.10
2023-01-19T14:43:00.203Z,-0.04
2023-01-19T14:45:32.719Z,0.03
2023-01-19T14:48:04.901Z,0.06
2023-01-19T14:50:41.519Z,0.05
2023-01-19T14:53:17.805Z,0.06
2023-01-19T14:55:49.748Z,0.11
2023-01-19T14:58:20.820Z,-0.01
2023-01-19T15:00:49.368Z,0.06
2023-01-19T15:03:17.276Z,-0.01
2023-01-19T15:05:46.440Z,0.01
2023-01-19T15:08:33.733Z,-0.02
2023-01-19T15:11:12.378Z,-0.11
2023-01-19T15:13:41.752Z,-0.22
2023-01-19T15:16:11.470Z,-0.22
2023-01-19T15:18:39.111Z,-0.23
2023-01-19T15:21:06.542Z,-0.29
2023-01-19T15:23:34.132Z,-0.31
2023-01-19T15:26:03.854Z,-0.28
2023-01-19T15:28:31.704Z,-0.44
2023-01-19T15:31:00.118Z,-0.42
2023-01-19T15:33:32.973Z,-0.41
2023-01-19T15:36:00.256Z,-0.45
2023-01-19T15:38:28.082Z,-0.49
2023-01-19T15:40:56.390Z,-0.50
2023-01-19T15:43:23.986Z,-0.56
2023-01-19T15:46:01.773Z,-0.58
2023-01-19T15:48:29.362Z,-0.55
2023-01-19T15:50:56.495Z,-0.57
2023-01-19T15:53:24.443Z,-0.63
2023-01-19T15:55:55.590Z,-0.55
2023-01-19T15:58:24.252Z,-0.54
2023-01-19T16:00:57.293Z,-0.57
2023-01-19T16:03:26.198Z,-0.53
2023-01-19T16:05:53.526Z,-0.58
2023-01-19T16:08:22.259Z,-0.52
2023-01-19T16:10:49.533Z,-0.45
2023-01-19T16:13:17.353Z,-0.47
2023-01-19T16:15:44.573Z,-0.43
2023-01-19T16:18:12.259Z,-0.45
2023-01-19T16:20:39.588Z,-0.54
2023-01-19T16:23:14.759Z,-0.60
2023-01-19T16:25:42.752Z,-0.48
2023-01-19T16:28:10.271Z,-0.51
2023-01-19T16:30:37.495Z,-0.51
2023-01-19T16:33:05.471Z,-0.56
2023-01-19T16:35:32.931Z,-0.64
2023-01-19T16:38:00.586Z,-0.66
2023-01-19T16:40:27.873Z,-0.57
2023-01-19T16:42:55.375Z,-0.62
2023-01-19T16:45:23.016Z,-0.57
2023-01-19T16:47:52.372Z,-0.57
2023-01-19T16:50:19.792Z,-0.59
2023-01-19T16:52:47.567Z,-0.62
2023-01-19T16:55:14.795Z,-0.64
2023-01-19T16:57:42.471Z,-0.60
2023-01-19T17:00:10.705Z,-0.59
2023-01-19T17:02:39.630Z,-0.60
2023-01-19T17:05:07.495Z,-0.53
2023-01-19T17:07:36.192Z,-0.53
2023-01-19T17:10:05.591Z,-0.46
2023-01-19T17:12:33.179Z,-0.48
2023-01-19T17:15:00.393Z,-0.58
2023-01-19T17:17:28.266Z,-0.47
2023-01-19T17:19:55.701Z,-0.46
2023-01-19T17:22:23.154Z,-0.53
2023-01-19T17:24:50.455Z,-0.67
2023-01-19T17:27:17.946Z,-0.62
2023-01-19T17:29:45.147Z,-0.67
2023-01-19T17:32:12.723Z,-0.67
2023-01-19T17:34:39.885Z,-0.70
2023-01-19T17:37:07.876Z,-0.66
2023-01-19T17:39:35.163Z,-0.71
2023-01-19T17:42:02.796Z,-0.76
2023-01-19T17:44:31.082Z,-0.66
2023-01-19T17:46:59.965Z,-0.64
2023-01-19T17:49:27.520Z,-0.70
2023-01-19T17:51:56.004Z,-0.70
2023-01-19T17:54:23.337Z,-0.63
2023-01-19T17:56:51.126Z,-0.65
2023-01-19T17:59:18.307Z,-0.62
2023-01-19T18:01:46.657Z,-0.70
2023-01-19T18:04:15.525Z,-0.59
2023-01-19T18:06:43.059Z,-0.62
2023-01-19T18:09:12.117Z,-0.56
2023-01-19T18:11:39.936Z,-0.64
2023-01-19T18:14:07.244Z,-0.63
2023-01-19T18:16:36.575Z,-0.67
2023-01-19T18:19:04.798Z,-0.73
2023-01-19T18:21:32.524Z,-0.76
2023-01-19T18:24:03.786Z,-0.72
2023-01-19T18:26:34.419Z,-0.69
2023-01-19T18:29:01.837Z,-0.72
2023-01-19T18:31:33.035Z,-0.76
2023-01-19T18:34:04.199Z,-0.85
2023-01-19T18:36:35.123Z,-0.83
2023-01-19T18:39:04.744Z,-0.86
2023-01-19T18:41:36.378Z,-0.85
2023-01-19T18:44:03.736Z,-0.87
2023-01-19T18:46:31.634Z,-0.93
2023-01-19T18:48:58.824Z,-1.00
2023-01-19T18:51:27.176Z,-1.09
2023-01-19T18:53:59.295Z,-1.16
2023-01-19T18:56:28.911Z,-1.28
2023-01-19T18:58:56.724Z,-1.29
2023-01-19T19:01:36.655Z,-1.17
2023-01-19T19:04:04.112Z,-1.17
2023-01-19T19:06:31.820Z,-1.19
2023-01-19T19:08:59.625Z,-1.24
2023-01-19T19:11:28.429Z,-1.19
2023-01-19T19:13:58.844Z,-1.19
2023-01-19T19:16:27.047Z,-1.26
2023-01-19T19:18:57.029Z,-1.26
2023-01-19T19:21:25.721Z,-1.23
2023-01-19T19:23:55.960Z,-1.21
2023-01-19T19:26:25.165Z,-1.26
2023-01-19T19:28:52.780Z,-1.20
2023-01-19T19:31:22.995Z,-1.23
2023-01-19T19:33:51.433Z,-1.24
2023-01-19T19:36:20.741Z,-1.20
2023-01-19T19:38:51.739Z,-1.25
2023-01-19T19:41:22.493Z,-1.11
2023-01-19T19:43:50.543Z,-1.23
2023-01-19T19:46:20.356Z,-1.25
2023-01-19T19:48:50.047Z,-1.26
2023-01-19T19:51:27.105Z,-1.27
2023-01-19T19:53:56.986Z,-1.19
2023-01-19T19:56:26.126Z,-1.21
2023-01-19T19:58:55.821Z,-1.23
2023-01-19T20:01:29.960Z,-1.25
2023-01-19T20:04:03.881Z,-1.21
2023-01-19T20:06:37.493Z,-1.11
2023-01-19T20:09:06.646Z,-1.17
2023-01-19T20:11:36.104Z,-1.17
2023-01-19T20:14:08.713Z,-1.18
2023-01-19T20:16:36.766Z,-1.25
2023-01-19T20:19:04.157Z,-1.28
2023-01-19T20:21:36.149Z,-1.18
2023-01-19T20:24:10.727Z,-1.19
2023-01-19T20:26:41.120Z,-1.24
2023-01-19T20:29:10.453Z,-1.15
2023-01-19T20:31:42.075Z,-1.20
2023-01-19T20:34:11.280Z,-1.17
2023-01-19T20:36:39.543Z,-1.31
2023-01-19T20:39:11.286Z,-1.31
2023-01-19T20:41:43.833Z,-1.28
2023-01-19T20:44:13.502Z,-1.29
2023-01-19T20:46:41.047Z,-1.39
2023-01-19T20:49:08.795Z,-1.49
2023-01-19T20:51:37.566Z,-1.46
2023-01-19T20:54:04.897Z,-1.47
2023-01-19T20:56:32.722Z,-1.48
2023-01-19T20:59:00.051Z,-1.50
2023-01-19T21:01:27.774Z,-1.48
2023-01-19T21:03:55.912Z,-1.44
2023-01-19T21:06:23.569Z,-1.43
2023-01-19T21:08:51.082Z,-1.42
2023-01-19T21:11:21.438Z,-1.46
2023-01-19T21:13:49.273Z,-1.49
2023-01-19T21:16:16.960Z,-1.53
2023-01-19T21:18:44.427Z,-1.49
2023-01-19T21:21:28.461Z,-1.58
2023-01-19T21:23:58.008Z,-1.47
2023-01-19T21:26:25.922Z,-1.46
2023-01-19T21:28:53.221Z,-1.56
2023-01-19T21:31:23.124Z,-1.50
2023-01-19T21:33:53.624Z,-1.49
2023-01-19T21:36:21.697Z,-1.47
2023-01-19T21:38:50.694Z,-1.48
2023-01-19T21:41:18.818Z,-1.48
2023-01-19T21:43:46.432Z,-1.47
2023-01-19T21:46:19.583Z,-1.36
2023-01-19T21:48:47.382Z,-1.33
2023-01-19T21:51:16.134Z,-1.37
2023-01-19T21:53:43.550Z,-1.35
2023-01-19T21:56:11.458Z,-1.30
2023-01-19T21:58:38.859Z,-1.36
2023-01-19T22:01:11.033Z,-1.27
2023-01-19T22:03:38.621Z,-1.24
2023-01-19T22:06:08.924Z,-1.19
2023-01-19T22:08:37.159Z,-1.26
2023-01-19T22:11:08.773Z,-1.14
2023-01-19T22:13:38.761Z,-1.12
2023-01-19T22:16:10.634Z,-1.07
2023-01-19T22:18:40.093Z,-1.13
2023-01-19T22:21:13.279Z,-1.16
2023-01-19T22:23:41.178Z,-1.24
2023-01-19T22:26:10.159Z,-1.18
2023-01-19T22:28:37.862Z,-1.18
2023-01-19T22:31:07.446Z,-1.15
2023-01-19T22:33:34.722Z,-1.20
2023-01-19T22:36:13.583Z,-1.21
2023-01-19T22:38:41.599Z,-1.20
2023-01-19T22:41:18.919Z,-1.14
2023-01-19T22:43:46.704Z,-1.21
2023-01-19T22:46:18.349Z,-1.18
2023-01-19T22:48:46.589Z,-1.28
2023-01-19T22:51:15.932Z,-1.20
2023-01-19T22:53:43.462Z,-1.20
2023-01-19T22:56:16.359Z,-1.22
2023-01-19T22:58:44.710Z,-1.31
2023-01-19T23:01:21.001Z,-1.29
2023-01-19T23:03:48.455Z,-1.29
2023-01-19T23:06:22.160Z,-1.42
2023-01-19T23:08:50.160Z,-1.35
2023-01-19T23:11:23.531Z,-1.30
2023-01-19T23:13:51.200Z,-1.44
2023-01-19T23:16:19.042Z,-1.31
2023-01-19T23:18:47.160Z,-1.25
2023-01-19T23:21:18.475Z,-1.26
2023-01-19T23:23:46.468Z,-1.19
2023-01-19T23:26:18.688Z,-1.19
2023-01-19T23:28:47.195Z,-1.17
2023-01-19T23:31:27.047Z,-1.17
2023-01-19T23:33:56.985Z,-1.17
2023-01-19T23:36:26.863Z,-1.15
2023-01-19T23:38:57.133Z,-1.09
2023-01-19T23:41:25.994Z,-1.10
2023-01-19T23:43:53.134Z,-1.12
2023-01-19T23:46:21.749Z,-1.15
2023-01-19T23:48:49.169Z,-1.19
2023-01-19T23:51:25.219Z,-1.13
2023-01-19T23:53:52.746Z,-1.21
2023-01-19T23:56:22.402Z,-1.21
2023-01-19T23:58:56.185Z,-1.28
